createdAt,value
2019-05-01T00:02:17.281Z,14.50
2019-05-01T00:04:57.315Z,14.50
2019-05-01T00:07:28.777Z,14.50
2019-05-01T00:09:58.041Z,14.50
2019-05-01T00:12:27.465Z,14.60
2019-05-01T00:14:57.398Z,14.50
2019-05-01T00:17:27.837Z,14.50
2019-05-01T00:19:57.736Z,14.50
2019-05-01T00:22:27.452Z,14.50
2019-05-01T00:24:57.264Z,14.40
2019-05-01T00:27:26.545Z,14.50
2019-05-01T00:29:57.602Z,14.50
2019-05-01T00:32:27.213Z,14.50
2019-05-01T00:34:56.930Z,14.50
2019-05-01T00:37:27.565Z,14.50
2019-05-01T00:39:57.263Z,14.50
2019-05-01T00:42:26.875Z,14.50
2019-05-01T00:44:57.499Z,14.50
2019-05-01T00:47:27.229Z,14.50
2019-05-01T00:49:56.578Z,14.50
2019-05-01T00:52:26.328Z,14.50
2019-05-01T00:55:00.559Z,14.50
2019-05-01T00:57:31.893Z,14.40
2019-05-01T01:00:03.233Z,14.40
2019-05-01T01:02:38.493Z,14.40
2019-05-01T01:05:08.189Z,14.40
2019-05-01T01:07:37.895Z,14.30
2019-05-01T01:10:07.918Z,14.20
2019-05-01T01:12:37.330Z,14.20
2019-05-01T01:15:07.141Z,14.20
2019-05-01T01:17:36.567Z,14.20
2019-05-01T01:20:06.017Z,14.20
2019-05-01T01:22:35.646Z,14.20
2019-05-01T01:25:07.181Z,14.20
2019-05-01T01:27:37.013Z,14.30
2019-05-01T01:30:07.745Z,14.20
2019-05-01T01:32:37.457Z,14.20
2019-05-01T01:35:07.374Z,14.20
2019-05-01T01:37:36.684Z,14.20
2019-05-01T01:40:06.585Z,14.20
2019-05-01T01:42:36.608Z,14.20
2019-05-01T01:45:10.821Z,14.20
2019-05-01T01:47:58.444Z,14.30
2019-05-01T01:50:29.085Z,14.20
2019-05-01T01:52:58.793Z,14.20
2019-05-01T01:55:28.396Z,14.20
2019-05-01T01:57:57.737Z,14.20
2019-05-01T02:00:35.911Z,14.20
2019-05-01T02:03:07.361Z,14.20
2019-05-01T02:05:38.249Z,14.20
2019-05-01T02:08:09.032Z,14.20
2019-05-01T02:10:43.002Z,14.20
2019-05-01T02:13:10.093Z,14.20
2019-05-01T02:15:39.618Z,14.20
2019-05-01T02:18:09.304Z,14.20
2019-05-01T02:20:38.841Z,14.20
2019-05-01T02:23:08.523Z,14.20
2019-05-01T02:25:39.870Z,14.20
2019-05-01T02:28:27.709Z,14.20
2019-05-01T02:31:27.700Z,14.20
2019-05-01T02:33:48.375Z,14.20
2019-05-01T02:36:18.140Z,14.10
2019-05-01T02:38:48.366Z,14.10
2019-05-01T02:41:18.169Z,14.10
2019-05-01T02:43:49.926Z,14.10
2019-05-01T02:46:20.766Z,14.00
2019-05-01T02:49:19.766Z,14.00
2019-05-01T02:51:49.475Z,14.00
2019-05-01T02:54:19.284Z,14.00
2019-05-01T02:56:56.687Z,13.90
2019-05-01T02:59:26.998Z,13.90
2019-05-01T03:01:56.813Z,13.90
2019-05-01T03:04:26.527Z,13.80
2019-05-01T03:06:55.873Z,13.80
2019-05-01T03:09:25.432Z,13.80
2019-05-01T03:11:55.237Z,13.70
2019-05-01T03:14:24.522Z,13.70
2019-05-01T03:16:53.925Z,13.70
2019-05-01T03:19:25.402Z,13.60
2019-05-01T03:21:56.851Z,13.60
2019-05-01T03:24:28.298Z,13.60
2019-05-01T03:26:58.008Z,13.60
2019-05-01T03:29:27.923Z,13.60
2019-05-01T03:32:15.405Z,13.60
2019-05-01T03:34:28.878Z,13.60
2019-05-01T03:36:58.229Z,13.60
2019-05-01T03:39:27.990Z,13.60
2019-05-01T03:41:57.434Z,13.60
2019-05-01T03:44:27.107Z,13.60
2019-05-01T03:46:56.368Z,13.60
2019-05-01T03:49:26.319Z,13.60
2019-05-01T03:51:55.762Z,13.60
2019-05-01T03:54:25.105Z,13.70
2019-05-01T03:56:55.962Z,13.60
2019-05-01T03:59:25.873Z,13.70
2019-05-01T04:01:57.327Z,13.70
2019-05-01T04:04:31.187Z,13.70
2019-05-01T04:07:00.668Z,13.70
2019-05-01T04:09:30.164Z,13.70
2019-05-01T04:11:59.854Z,13.70
2019-05-01T04:14:29.566Z,13.70
2019-05-01T04:17:00.810Z,13.70
2019-05-01T04:19:30.722Z,13.70
2019-05-01T04:22:01.717Z,13.70
2019-05-01T04:24:32.504Z,13.70
2019-05-01T04:27:03.445Z,13.70
2019-05-01T04:29:37.554Z,13.70
2019-05-01T04:32:12.694Z,13.70
2019-05-01T04:34:44.144Z,13.70
2019-05-01T04:37:15.108Z,13.70
2019-05-01T04:39:44.462Z,13.70
2019-05-01T04:42:14.105Z,13.70
2019-05-01T04:44:43.807Z,13.80
2019-05-01T04:47:13.815Z,13.90
2019-05-01T04:49:43.946Z,13.80
2019-05-01T04:52:13.647Z,13.80
2019-05-01T04:54:43.462Z,13.80
2019-05-01T04:57:13.269Z,13.80
2019-05-01T04:59:42.990Z,13.80
2019-05-01T05:02:15.352Z,13.90
2019-05-01T05:04:44.962Z,13.90
2019-05-01T05:07:14.771Z,13.90
2019-05-01T05:09:47.765Z,13.90
2019-05-01T05:12:37.233Z,14.00
2019-05-01T05:15:18.005Z,14.00
2019-05-01T05:17:50.402Z,14.00
2019-05-01T05:20:20.082Z,14.10
2019-05-01T05:22:49.692Z,14.10
2019-05-01T05:25:19.206Z,14.20
2019-05-01T05:27:48.697Z,14.20
2019-05-01T05:30:18.325Z,14.30
2019-05-01T05:32:48.384Z,14.30
2019-05-01T05:35:18.377Z,14.40
2019-05-01T05:37:57.997Z,14.40
2019-05-01T05:40:31.043Z,14.40
2019-05-01T05:43:00.687Z,14.40
2019-05-01T05:45:30.301Z,14.40
2019-05-01T05:48:00.007Z,14.50
2019-05-01T05:50:37.090Z,14.60
2019-05-01T05:53:08.533Z,14.70
2019-05-01T05:55:40.532Z,14.80
2019-05-01T05:58:15.953Z,15.10
2019-05-01T06:00:53.123Z,15.40
2019-05-01T06:03:40.769Z,15.60
2019-05-01T06:06:21.662Z,15.70
2019-05-01T06:08:53.205Z,15.80
2019-05-01T06:11:34.026Z,15.80
2019-05-01T06:14:22.866Z,15.90
2019-05-01T06:16:55.720Z,15.90
2019-05-01T06:19:27.049Z,16.10
2019-05-01T06:22:11.613Z,16.30
2019-05-01T06:24:42.737Z,16.50
2019-05-01T06:27:13.711Z,16.70
2019-05-01T06:29:43.898Z,16.70
2019-05-01T06:32:14.649Z,16.70
2019-05-01T06:34:45.050Z,16.60
2019-05-01T06:37:15.005Z,16.60
2019-05-01T06:39:48.130Z,16.50
2019-05-01T06:42:18.298Z,16.40
2019-05-01T06:44:49.656Z,16.40
2019-05-01T06:47:38.141Z,16.50
2019-05-01T06:50:25.641Z,16.50
2019-05-01T06:52:59.822Z,16.70
2019-05-01T06:55:28.862Z,16.70
2019-05-01T06:57:59.457Z,16.70
2019-05-01T07:00:30.201Z,16.80
2019-05-01T07:03:00.018Z,16.70
2019-05-01T07:05:29.842Z,16.70
2019-05-01T07:07:59.733Z,16.70
2019-05-01T07:10:32.839Z,16.70
2019-05-01T07:13:04.823Z,16.70
2019-05-01T07:15:32.866Z,16.70
2019-05-01T07:18:03.597Z,16.70
2019-05-01T07:20:37.912Z,16.70
2019-05-01T07:23:07.523Z,16.70
2019-05-01T07:25:39.462Z,16.80
2019-05-01T07:28:08.573Z,16.90
2019-05-01T07:30:54.946Z,17.10
2019-05-01T07:33:24.083Z,17.20
2019-05-01T07:35:54.128Z,17.30
2019-05-01T07:38:24.937Z,17.50
2019-05-01T07:40:58.813Z,17.70
2019-05-01T07:43:27.334Z,18.00
2019-05-01T07:45:58.669Z,18.30
2019-05-01T07:48:31.208Z,18.60
2019-05-01T07:51:01.880Z,18.80
2019-05-01T07:53:32.209Z,19.00
2019-05-01T07:56:01.550Z,19.10
2019-05-01T07:58:32.137Z,19.30
2019-05-01T08:01:13.064Z,19.50
2019-05-01T08:03:42.745Z,19.60
2019-05-01T08:06:11.509Z,19.50
2019-05-01T08:08:41.109Z,19.40
2019-05-01T08:11:10.731Z,19.40
2019-05-01T08:13:40.428Z,19.40
2019-05-01T08:16:11.170Z,19.40
2019-05-01T08:18:42.513Z,19.40
2019-05-01T08:21:30.344Z,19.40
2019-05-01T08:24:00.060Z,19.50
2019-05-01T08:26:30.997Z,19.70
2019-05-01T08:29:03.033Z,20.00
2019-05-01T08:31:43.849Z,20.20
2019-05-01T08:34:15.181Z,20.20
2019-05-01T08:36:47.171Z,20.30
2019-05-01T08:39:16.465Z,20.40
2019-05-01T08:41:46.016Z,20.40
2019-05-01T08:44:15.765Z,20.50
2019-05-01T08:46:52.977Z,20.60
2019-05-01T08:49:42.231Z,20.80
2019-05-01T08:52:13.658Z,20.80
2019-05-01T08:54:41.573Z,20.90
2019-05-01T08:57:11.365Z,21.00
2019-05-01T08:59:41.157Z,20.90
2019-05-01T09:02:11.103Z,21.00
2019-05-01T09:04:40.786Z,21.10
2019-05-01T09:07:10.280Z,21.20
2019-05-01T09:09:45.231Z,21.20
2019-05-01T09:12:11.886Z,21.00
2019-05-01T09:14:42.286Z,20.80
2019-05-01T09:17:12.105Z,20.50
2019-05-01T09:19:41.911Z,20.20
2019-05-01T09:22:11.733Z,20.10
2019-05-01T09:24:41.911Z,19.90
2019-05-01T09:27:24.030Z,19.80
2019-05-01T09:29:55.093Z,19.80
2019-05-01T09:32:24.604Z,19.70
2019-05-01T09:34:53.957Z,19.60
2019-05-01T09:37:23.271Z,19.60
2019-05-01T09:39:52.908Z,19.80
2019-05-01T09:42:23.855Z,19.90
2019-05-01T09:44:53.970Z,20.10
2019-05-01T09:47:24.292Z,20.20
2019-05-01T09:49:55.919Z,20.20
2019-05-01T09:52:32.731Z,20.30
2019-05-01T09:55:04.071Z,20.50
2019-05-01T09:57:36.553Z,20.80
2019-05-01T10:00:08.259Z,20.90
2019-05-01T10:02:42.177Z,20.80
2019-05-01T10:05:10.936Z,20.40
2019-05-01T10:07:40.718Z,20.40
2019-05-01T10:10:11.289Z,20.50
2019-05-01T10:12:53.333Z,20.70
2019-05-01T10:15:22.949Z,20.90
2019-05-01T10:17:56.247Z,21.20
2019-05-01T10:20:25.609Z,21.10
2019-05-01T10:22:55.728Z,20.90
2019-05-01T10:25:26.137Z,20.80
2019-05-01T10:28:17.682Z,20.50
2019-05-01T10:30:48.713Z,20.30
2019-05-01T10:33:22.691Z,20.40
2019-05-01T10:36:18.256Z,20.50
2019-05-01T10:38:44.881Z,20.70
2019-05-01T10:41:13.705Z,20.90
2019-05-01T10:43:43.454Z,21.10
2019-05-01T10:46:13.274Z,21.20
2019-05-01T10:48:43.662Z,21.20
2019-05-01T10:51:13.569Z,21.20
2019-05-01T10:53:43.308Z,21.40
2019-05-01T10:56:13.221Z,21.40
2019-05-01T10:58:43.221Z,21.40
2019-05-01T11:01:20.494Z,21.30
2019-05-01T11:03:50.102Z,21.10
2019-05-01T11:06:19.893Z,20.90
2019-05-01T11:08:50.702Z,20.70
2019-05-01T11:11:20.859Z,20.60
2019-05-01T11:13:51.668Z,20.60
2019-05-01T11:16:21.648Z,20.60
2019-05-01T11:18:51.533Z,20.50
2019-05-01T11:21:21.471Z,20.50
2019-05-01T11:23:50.916Z,20.50
2019-05-01T11:26:20.785Z,20.40
2019-05-01T11:28:50.502Z,20.40
2019-05-01T11:31:30.957Z,20.30
2019-05-01T11:34:08.202Z,20.40
2019-05-01T11:36:55.775Z,20.50
2019-05-01T11:39:29.733Z,20.80
2019-05-01T11:42:09.548Z,20.90
2019-05-01T11:44:39.241Z,21.00
2019-05-01T11:47:09.258Z,21.20
2019-05-01T11:49:39.392Z,21.30
2019-05-01T11:52:09.056Z,21.20
2019-05-01T11:54:38.800Z,21.10
2019-05-01T11:57:08.620Z,21.20
2019-05-01T11:59:39.546Z,21.20
2019-05-01T12:02:11.808Z,21.30
2019-05-01T12:05:04.451Z,21.50
2019-05-01T12:07:35.548Z,21.80
2019-05-01T12:10:06.370Z,21.80
2019-05-01T12:12:37.232Z,21.80
2019-05-01T12:15:08.401Z,21.80
2019-05-01T12:17:45.503Z,21.80
2019-05-01T12:20:15.680Z,21.60
2019-05-01T12:22:47.901Z,21.80
2019-05-01T12:25:17.007Z,22.30
2019-05-01T12:27:46.727Z,22.80
2019-05-01T12:30:17.778Z,22.50
2019-05-01T12:32:47.123Z,22.20
2019-05-01T12:35:16.874Z,21.90
2019-05-01T12:37:47.426Z,21.60
2019-05-01T12:40:17.325Z,21.50
2019-05-01T12:42:47.135Z,21.40
2019-05-01T12:45:17.058Z,21.30
2019-05-01T12:47:51.157Z,21.20
2019-05-01T12:50:20.577Z,21.10
2019-05-01T12:53:03.786Z,20.90
2019-05-01T12:55:47.317Z,20.90
2019-05-01T12:58:17.041Z,20.90
2019-05-01T13:00:59.122Z,20.90
2019-05-01T13:03:28.937Z,21.00
2019-05-01T13:05:58.647Z,21.00
2019-05-01T13:08:29.151Z,21.00
2019-05-01T13:10:58.996Z,21.00
2019-05-01T13:13:28.806Z,21.00
2019-05-01T13:15:58.716Z,21.00
2019-05-01T13:18:28.581Z,21.10
2019-05-01T13:20:58.345Z,21.30
2019-05-01T13:23:28.073Z,21.50
2019-05-01T13:25:59.510Z,21.70
2019-05-01T13:28:39.762Z,22.10
2019-05-01T13:31:11.632Z,22.30
2019-05-01T13:33:41.057Z,22.10
2019-05-01T13:36:10.487Z,22.30
2019-05-01T13:38:40.386Z,22.30
2019-05-01T13:41:10.060Z,22.10
2019-05-01T13:43:39.469Z,21.80
2019-05-01T13:46:09.264Z,21.70
2019-05-01T13:48:38.892Z,21.50
2019-05-01T13:51:08.646Z,21.20
2019-05-01T13:53:38.297Z,21.40
2019-05-01T13:56:08.927Z,21.60
2019-05-01T13:58:59.384Z,21.50
2019-05-01T14:01:28.841Z,21.10
2019-05-01T14:03:58.502Z,21.00
2019-05-01T14:06:29.338Z,20.90
2019-05-01T14:08:58.981Z,21.00
2019-05-01T14:11:28.692Z,21.00
2019-05-01T14:13:58.297Z,21.00
2019-05-01T14:16:28.118Z,21.00
2019-05-01T14:18:57.931Z,21.00
2019-05-01T14:21:37.998Z,21.00
2019-05-01T14:24:12.110Z,21.00
2019-05-01T14:26:41.902Z,20.90
2019-05-01T14:29:11.264Z,20.80
2019-05-01T14:31:41.033Z,20.80
2019-05-01T14:34:10.836Z,20.80
2019-05-01T14:36:40.645Z,20.80
2019-05-01T14:39:10.360Z,20.80
2019-05-01T14:41:40.180Z,20.90
2019-05-01T14:44:10.078Z,20.90
2019-05-01T14:46:39.899Z,20.80
2019-05-01T14:49:09.825Z,20.80
2019-05-01T14:51:40.111Z,20.70
2019-05-01T14:54:09.759Z,20.70
2019-05-01T14:56:39.552Z,20.70
2019-05-01T14:59:10.157Z,20.60
2019-05-01T15:01:40.201Z,20.70
2019-05-01T15:04:09.909Z,20.60
2019-05-01T15:06:39.617Z,20.50
2019-05-01T15:09:09.673Z,20.50
2019-05-01T15:11:40.990Z,20.50
2019-05-01T15:14:24.021Z,20.50
2019-05-01T15:16:58.126Z,20.50
2019-05-01T15:19:29.122Z,20.40
2019-05-01T15:21:59.897Z,20.40
2019-05-01T15:24:29.609Z,20.40
2019-05-01T15:26:59.021Z,20.50
2019-05-01T15:29:28.821Z,20.40
2019-05-01T15:31:58.639Z,20.40
2019-05-01T15:34:28.445Z,20.30
2019-05-01T15:36:58.260Z,20.30
2019-05-01T15:39:29.719Z,20.40
2019-05-01T15:42:07.429Z,20.40
2019-05-01T15:44:38.890Z,20.40
2019-05-01T15:47:08.796Z,20.30
2019-05-01T15:49:38.592Z,20.30
2019-05-01T15:52:08.931Z,20.30
2019-05-01T15:54:38.674Z,20.20
2019-05-01T15:57:08.442Z,20.20
2019-05-01T15:59:38.163Z,20.20
2019-05-01T16:02:08.063Z,20.10
2019-05-01T16:04:37.975Z,20.10
2019-05-01T16:07:07.798Z,20.10
2019-05-01T16:09:37.492Z,20.10
2019-05-01T16:12:14.587Z,20.00
2019-05-01T16:14:45.112Z,20.00
2019-05-01T16:17:14.534Z,20.00
2019-05-01T16:19:44.228Z,19.90
2019-05-01T16:22:13.939Z,19.90
2019-05-01T16:24:43.671Z,19.80
2019-05-01T16:27:14.044Z,19.90
2019-05-01T16:29:43.807Z,19.80
2019-05-01T16:32:13.187Z,19.80
2019-05-01T16:34:42.993Z,19.80
2019-05-01T16:37:12.309Z,19.70
2019-05-01T16:39:46.425Z,19.70
2019-05-01T16:42:15.945Z,19.70
2019-05-01T16:44:45.526Z,19.80
2019-05-01T16:47:15.333Z,19.70
2019-05-01T16:49:44.746Z,19.70
2019-05-01T16:52:15.371Z,19.60
2019-05-01T16:54:45.089Z,19.60
2019-05-01T16:57:16.013Z,19.50
2019-05-01T16:59:45.830Z,19.50
2019-05-01T17:02:17.192Z,19.40
2019-05-01T17:04:54.777Z,19.40
2019-05-01T17:07:35.229Z,19.30
2019-05-01T17:10:11.854Z,19.30
2019-05-01T17:12:43.259Z,19.30
2019-05-01T17:15:12.965Z,19.20
2019-05-01T17:17:42.680Z,19.10
2019-05-01T17:20:12.290Z,19.10
2019-05-01T17:22:41.572Z,19.00
2019-05-01T17:25:11.604Z,19.00
2019-05-01T17:27:41.517Z,19.00
2019-05-01T17:30:18.910Z,19.00
2019-05-01T17:32:48.722Z,18.90
2019-05-01T17:35:18.406Z,18.90
2019-05-01T17:37:48.041Z,18.80
2019-05-01T17:40:17.286Z,18.70
2019-05-01T17:42:47.161Z,18.70
2019-05-01T17:45:16.960Z,18.70
2019-05-01T17:47:47.696Z,18.60
2019-05-01T17:50:21.018Z,18.60
2019-05-01T17:52:49.061Z,18.60
2019-05-01T17:55:19.706Z,18.50
2019-05-01T17:57:49.542Z,18.50
2019-05-01T18:00:27.221Z,18.40
2019-05-01T18:03:10.744Z,18.40
2019-05-01T18:06:01.451Z,18.40
2019-05-01T18:08:28.237Z,18.30
2019-05-01T18:10:58.006Z,18.30
2019-05-01T18:13:27.726Z,18.20
2019-05-01T18:15:57.627Z,18.20
2019-05-01T18:18:27.357Z,18.10
2019-05-01T18:20:57.143Z,18.10
2019-05-01T18:23:31.583Z,18.10
2019-05-01T18:26:08.756Z,18.00
2019-05-01T18:28:38.987Z,18.00
2019-05-01T18:31:10.426Z,18.00
2019-05-01T18:33:39.872Z,18.00
2019-05-01T18:36:09.736Z,18.00
2019-05-01T18:38:47.579Z,17.90
2019-05-01T18:41:20.410Z,17.90
2019-05-01T18:43:50.787Z,17.90
2019-05-01T18:46:20.988Z,17.80
2019-05-01T18:48:52.076Z,17.80
2019-05-01T18:51:22.044Z,17.80
2019-05-01T18:53:57.431Z,17.90
2019-05-01T18:56:25.315Z,17.80
2019-05-01T18:58:55.448Z,17.80
2019-05-01T19:01:25.243Z,17.80
2019-05-01T19:03:54.924Z,17.80
2019-05-01T19:06:25.985Z,17.70
2019-05-01T19:08:56.542Z,17.70
2019-05-01T19:11:27.783Z,17.70
2019-05-01T19:13:58.040Z,17.60
2019-05-01T19:16:27.835Z,17.60
2019-05-01T19:18:57.957Z,17.60
2019-05-01T19:21:29.001Z,17.50
2019-05-01T19:24:00.620Z,17.50
2019-05-01T19:26:30.154Z,17.50
2019-05-01T19:28:59.997Z,17.40
2019-05-01T19:31:29.685Z,17.40
2019-05-01T19:33:59.519Z,17.40
2019-05-01T19:36:29.203Z,17.30
2019-05-01T19:38:58.553Z,17.30
2019-05-01T19:41:28.210Z,17.30
2019-05-01T19:43:57.923Z,17.30
2019-05-01T19:46:27.629Z,17.20
2019-05-01T19:48:57.504Z,17.20
2019-05-01T19:51:27.257Z,17.20
2019-05-01T19:53:57.192Z,17.20
2019-05-01T19:56:27.265Z,17.10
2019-05-01T19:58:57.911Z,17.10
2019-05-01T20:01:29.164Z,17.00
2019-05-01T20:03:59.126Z,17.00
2019-05-01T20:06:29.002Z,17.00
2019-05-01T20:08:58.714Z,16.90
2019-05-01T20:11:28.525Z,16.90
2019-05-01T20:13:58.265Z,16.90
2019-05-01T20:16:28.054Z,16.80
2019-05-01T20:18:57.955Z,16.80
2019-05-01T20:21:27.914Z,16.80
2019-05-01T20:23:58.354Z,16.70
2019-05-01T20:26:32.251Z,16.70
2019-05-01T20:29:00.514Z,16.60
2019-05-01T20:31:32.779Z,16.60
2019-05-01T20:34:01.902Z,16.60
2019-05-01T20:36:31.562Z,16.60
2019-05-01T20:39:01.375Z,16.50
2019-05-01T20:41:33.345Z,16.50
2019-05-01T20:44:02.656Z,16.50
2019-05-01T20:46:32.357Z,16.40
2019-05-01T20:49:06.250Z,16.40
2019-05-01T20:51:33.513Z,16.40
2019-05-01T20:54:03.317Z,16.40
2019-05-01T20:56:37.238Z,16.30
2019-05-01T20:59:07.189Z,16.30
2019-05-01T21:01:38.094Z,16.30
2019-05-01T21:04:26.382Z,16.20
2019-05-01T21:07:19.862Z,16.20
2019-05-01T21:09:57.290Z,16.20
2019-05-01T21:12:19.833Z,16.10
2019-05-01T21:14:49.880Z,16.10
2019-05-01T21:17:20.700Z,16.10
2019-05-01T21:19:50.405Z,16.10
2019-05-01T21:22:19.757Z,16.00
2019-05-01T21:24:49.520Z,16.00
2019-05-01T21:27:19.125Z,16.00
2019-05-01T21:29:48.937Z,15.90
2019-05-01T21:32:25.513Z,15.90
2019-05-01T21:34:51.226Z,15.90
2019-05-01T21:37:21.142Z,15.90
2019-05-01T21:39:50.856Z,15.80
2019-05-01T21:42:20.563Z,15.80
2019-05-01T21:44:50.278Z,15.80
2019-05-01T21:47:19.978Z,15.80
2019-05-01T21:49:49.701Z,15.80
2019-05-01T21:52:25.134Z,15.70
2019-05-01T21:54:55.150Z,15.70
2019-05-01T21:57:21.385Z,15.70
2019-05-01T21:59:51.094Z,15.60
2019-05-01T22:02:20.534Z,15.60
2019-05-01T22:04:49.909Z,15.60
2019-05-01T22:07:19.257Z,15.60
2019-05-01T22:09:50.541Z,15.60
2019-05-01T22:12:20.375Z,15.60
2019-05-01T22:14:54.165Z,15.50
2019-05-01T22:17:32.119Z,15.50
2019-05-01T22:19:59.321Z,15.50
2019-05-01T22:22:44.021Z,15.40
2019-05-01T22:25:12.666Z,15.40
2019-05-01T22:27:46.887Z,15.30
2019-05-01T22:30:18.129Z,15.30
2019-05-01T22:32:49.549Z,15.30
2019-05-01T22:35:20.866Z,15.30
2019-05-01T22:37:50.637Z,15.30
2019-05-01T22:40:34.018Z,15.30
2019-05-01T22:43:03.888Z,15.30
2019-05-01T22:45:33.698Z,15.30
2019-05-01T22:48:03.501Z,15.30
2019-05-01T22:50:33.113Z,15.30
2019-05-01T22:53:02.770Z,15.20
2019-05-01T22:55:32.430Z,15.30
2019-05-01T22:58:01.760Z,15.20
2019-05-01T23:00:36.051Z,15.20
2019-05-01T23:03:07.501Z,15.20
2019-05-01T23:05:37.211Z,15.10
2019-05-01T23:08:07.023Z,15.10
2019-05-01T23:10:36.588Z,15.10
2019-05-01T23:13:06.538Z,15.10
2019-05-01T23:15:36.128Z,15.10
2019-05-01T23:18:05.480Z,15.00
2019-05-01T23:20:38.979Z,15.10
2019-05-01T23:23:05.858Z,15.10
2019-05-01T23:25:36.523Z,15.00
2019-05-01T23:28:06.961Z,15.00
2019-05-01T23:30:37.902Z,15.00
2019-05-01T23:33:07.610Z,14.90
2019-05-01T23:35:37.045Z,14.90
2019-05-01T23:38:06.718Z,14.90
2019-05-01T23:40:36.101Z,14.90
2019-05-01T23:43:05.938Z,14.80
2019-05-01T23:45:35.367Z,14.80
2019-05-01T23:48:04.964Z,14.80
2019-05-01T23:50:34.549Z,14.80
2019-05-01T23:53:04.185Z,14.80
2019-05-01T23:55:33.974Z,14.80
2019-05-01T23:58:03.177Z,14.80
